sensor_id;sensor_type;location;lat;lon;timestamp;P1;durP1;ratioP1;P2;durP2;ratioP2
50585;SDS011;36542;51.700;8.846;2023-04-15T00:01:50;10.37;;;7.20;;
50585;SDS011;36542;51.700;8.846;2023-04-15T00:04:16;11.27;;;7.53;;
50585;SDS011;36542;51.700;8.846;2023-04-15T00:06:41;10.77;;;6.73;;
50585;SDS011;36542;51.700;8.846;2023-04-15T00:09:07;9.13;;;7.53;;
50585;SDS011;36542;51.700;8.846;2023-04-15T00:11:32;10.30;;;7.17;;
50585;SDS011;36542;51.700;8.846;2023-04-15T00:13:58;9.33;;;6.77;;
50585;SDS011;36542;51.700;8.846;2023-04-15T00:16:24;10.60;;;7.27;;
50585;SDS011;36542;51.700;8.846;2023-04-15T00:18:50;9.93;;;8.03;;
50585;SDS011;36542;51.700;8.846;2023-04-15T00:21:15;9.13;;;6.93;;
50585;SDS011;36542;51.700;8.846;2023-04-15T00:23:41;10.03;;;7.43;;
50585;SDS011;36542;51.700;8.846;2023-04-15T00:26:06;8.33;;;6.97;;
50585;SDS011;36542;51.700;8.846;2023-04-15T00:28:32;9.60;;;8.07;;
50585;SDS011;36542;51.700;8.846;2023-04-15T00:30:58;10.83;;;7.40;;
50585;SDS011;36542;51.700;8.846;2023-04-15T00:33:23;9.73;;;6.80;;
50585;SDS011;36542;51.700;8.846;2023-04-15T00:35:49;9.77;;;7.90;;
50585;SDS011;36542;51.700;8.846;2023-04-15T00:38:14;11.97;;;8.47;;
50585;SDS011;36542;51.700;8.846;2023-04-15T00:40:40;11.13;;;8.50;;
50585;SDS011;36542;51.700;8.846;2023-04-15T00:43:06;9.17;;;8.10;;
50585;SDS011;36542;51.700;8.846;2023-04-15T00:45:31;10.13;;;8.33;;
50585;SDS011;36542;51.700;8.846;2023-04-15T00:47:57;12.53;;;7.27;;
50585;SDS011;36542;51.700;8.846;2023-04-15T00:50:23;11.07;;;8.50;;
50585;SDS011;36542;51.700;8.846;2023-04-15T00:52:48;8.93;;;7.47;;
50585;SDS011;36542;51.700;8.846;2023-04-15T00:55:14;9.10;;;7.80;;
50585;SDS011;36542;51.700;8.846;2023-04-15T00:57:40;10.47;;;7.90;;
50585;SDS011;36542;51.700;8.846;2023-04-15T01:00:06;11.10;;;8.40;;
50585;SDS011;36542;51.700;8.846;2023-04-15T01:02:33;12.83;;;8.53;;
50585;SDS011;36542;51.700;8.846;2023-04-15T01:05:00;10.87;;;8.53;;
50585;SDS011;36542;51.700;8.846;2023-04-15T01:07:26;10.90;;;8.30;;
50585;SDS011;36542;51.700;8.846;2023-04-15T01:09:51;12.30;;;8.03;;
50585;SDS011;36542;51.700;8.846;2023-04-15T01:12:18;11.07;;;8.47;;
50585;SDS011;36542;51.700;8.846;2023-04-15T01:14:44;10.80;;;8.53;;
50585;SDS011;36542;51.700;8.846;2023-04-15T01:17:10;11.40;;;7.90;;
50585;SDS011;36542;51.700;8.846;2023-04-15T01:19:35;9.40;;;7.90;;
50585;SDS011;36542;51.700;8.846;2023-04-15T01:22:01;14.17;;;8.60;;
50585;SDS011;36542;51.700;8.846;2023-04-15T01:24:27;9.93;;;7.80;;
50585;SDS011;36542;51.700;8.846;2023-04-15T01:26:55;10.30;;;7.80;;
50585;SDS011;36542;51.700;8.846;2023-04-15T01:29:21;10.80;;;7.93;;
50585;SDS011;36542;51.700;8.846;2023-04-15T01:31:53;11.10;;;8.67;;
50585;SDS011;36542;51.700;8.846;2023-04-15T01:34:19;9.47;;;8.40;;
50585;SDS011;36542;51.700;8.846;2023-04-15T01:36:46;9.83;;;8.37;;
50585;SDS011;36542;51.700;8.846;2023-04-15T01:39:12;11.00;;;8.43;;
50585;SDS011;36542;51.700;8.846;2023-04-15T01:41:38;11.77;;;8.13;;
50585;SDS011;36542;51.700;8.846;2023-04-15T01:44:05;12.13;;;8.50;;
50585;SDS011;36542;51.700;8.846;2023-04-15T01:46:31;12.20;;;8.63;;
50585;SDS011;36542;51.700;8.846;2023-04-15T01:48:56;12.20;;;8.70;;
50585;SDS011;36542;51.700;8.846;2023-04-15T01:51:22;10.13;;;7.60;;
50585;SDS011;36542;51.700;8.846;2023-04-15T01:53:47;10.40;;;8.17;;
50585;SDS011;36542;51.700;8.846;2023-04-15T01:56:13;10.70;;;8.07;;
50585;SDS011;36542;51.700;8.846;2023-04-15T01:58:38;11.23;;;8.30;;
50585;SDS011;36542;51.700;8.846;2023-04-15T02:01:04;13.10;;;8.10;;
50585;SDS011;36542;51.700;8.846;2023-04-15T02:03:30;11.50;;;8.87;;
50585;SDS011;36542;51.700;8.846;2023-04-15T02:05:56;10.93;;;8.60;;
50585;SDS011;36542;51.700;8.846;2023-04-15T02:08:22;13.83;;;8.87;;
50585;SDS011;36542;51.700;8.846;2023-04-15T02:10:47;13.27;;;7.73;;
50585;SDS011;36542;51.700;8.846;2023-04-15T02:13:13;12.37;;;8.97;;
50585;SDS011;36542;51.700;8.846;2023-04-15T02:15:38;12.30;;;8.40;;
50585;SDS011;36542;51.700;8.846;2023-04-15T02:18:04;12.40;;;9.20;;
50585;SDS011;36542;51.700;8.846;2023-04-15T02:20:30;10.80;;;8.60;;
50585;SDS011;36542;51.700;8.846;2023-04-15T02:22:56;12.17;;;8.73;;
50585;SDS011;36542;51.700;8.846;2023-04-15T02:25:21;11.90;;;9.07;;
50585;SDS011;36542;51.700;8.846;2023-04-15T02:27:47;11.77;;;9.07;;
50585;SDS011;36542;51.700;8.846;2023-04-15T02:30:12;11.40;;;8.17;;
50585;SDS011;36542;51.700;8.846;2023-04-15T02:32:39;11.10;;;8.70;;
50585;SDS011;36542;51.700;8.846;2023-04-15T02:35:05;12.17;;;8.53;;
50585;SDS011;36542;51.700;8.846;2023-04-15T02:37:32;12.57;;;8.33;;
50585;SDS011;36542;51.700;8.846;2023-04-15T02:40:01;11.73;;;8.87;;
50585;SDS011;36542;51.700;8.846;2023-04-15T02:42:27;10.30;;;8.87;;
50585;SDS011;36542;51.700;8.846;2023-04-15T02:44:54;12.60;;;8.87;;
50585;SDS011;36542;51.700;8.846;2023-04-15T02:47:20;14.77;;;10.80;;
50585;SDS011;36542;51.700;8.846;2023-04-15T02:49:45;14.20;;;10.10;;
50585;SDS011;36542;51.700;8.846;2023-04-15T02:52:11;16.53;;;11.73;;
50585;SDS011;36542;51.700;8.846;2023-04-15T02:54:37;11.60;;;8.57;;
50585;SDS011;36542;51.700;8.846;2023-04-15T02:57:03;11.57;;;8.17;;
50585;SDS011;36542;51.700;8.846;2023-04-15T02:59:30;10.87;;;7.63;;
50585;SDS011;36542;51.700;8.846;2023-04-15T03:01:56;11.63;;;8.50;;
50585;SDS011;36542;51.700;8.846;2023-04-15T03:04:24;11.50;;;8.73;;
50585;SDS011;36542;51.700;8.846;2023-04-15T03:06:50;11.30;;;8.47;;
50585;SDS011;36542;51.700;8.846;2023-04-15T03:09:16;16.90;;;11.40;;
50585;SDS011;36542;51.700;8.846;2023-04-15T03:11:41;16.40;;;12.30;;
50585;SDS011;36542;51.700;8.846;2023-04-15T03:14:07;15.43;;;9.97;;
50585;SDS011;36542;51.700;8.846;2023-04-15T03:16:32;10.30;;;8.17;;
50585;SDS011;36542;51.700;8.846;2023-04-15T03:18:57;15.10;;;10.07;;
50585;SDS011;36542;51.700;8.846;2023-04-15T03:21:23;12.17;;;9.03;;
50585;SDS011;36542;51.700;8.846;2023-04-15T03:23:48;16.07;;;9.47;;
50585;SDS011;36542;51.700;8.846;2023-04-15T03:26:27;13.43;;;10.37;;
50585;SDS011;36542;51.700;8.846;2023-04-15T03:28:53;13.93;;;9.73;;
50585;SDS011;36542;51.700;8.846;2023-04-15T03:31:19;14.07;;;11.77;;
50585;SDS011;36542;51.700;8.846;2023-04-15T03:33:44;14.10;;;10.33;;
50585;SDS011;36542;51.700;8.846;2023-04-15T03:36:10;16.10;;;11.50;;
50585;SDS011;36542;51.700;8.846;2023-04-15T03:38:35;17.13;;;11.63;;
50585;SDS011;36542;51.700;8.846;2023-04-15T03:41:01;18.03;;;12.57;;
50585;SDS011;36542;51.700;8.846;2023-04-15T03:43:26;17.97;;;12.33;;
50585;SDS011;36542;51.700;8.846;2023-04-15T03:45:52;18.87;;;11.70;;
50585;SDS011;36542;51.700;8.846;2023-04-15T03:48:17;15.20;;;10.97;;
50585;SDS011;36542;51.700;8.846;2023-04-15T03:50:43;13.37;;;10.57;;
50585;SDS011;36542;51.700;8.846;2023-04-15T03:53:09;15.70;;;11.97;;
50585;SDS011;36542;51.700;8.846;2023-04-15T03:55:34;16.03;;;12.73;;
50585;SDS011;36542;51.700;8.846;2023-04-15T03:58:00;21.87;;;13.20;;
50585;SDS011;36542;51.700;8.846;2023-04-15T04:00:25;21.40;;;14.43;;
50585;SDS011;36542;51.700;8.846;2023-04-15T04:02:51;20.77;;;13.87;;
50585;SDS011;36542;51.700;8.846;2023-04-15T04:05:16;22.13;;;15.00;;
50585;SDS011;36542;51.700;8.846;2023-04-15T04:07:42;22.57;;;15.50;;
50585;SDS011;36542;51.700;8.846;2023-04-15T04:10:07;22.13;;;15.10;;
50585;SDS011;36542;51.700;8.846;2023-04-15T04:12:33;23.87;;;15.60;;
50585;SDS011;36542;51.700;8.846;2023-04-15T04:14:58;23.60;;;15.83;;
50585;SDS011;36542;51.700;8.846;2023-04-15T04:17:24;22.03;;;15.43;;
50585;SDS011;36542;51.700;8.846;2023-04-15T04:19:50;23.60;;;14.90;;
50585;SDS011;36542;51.700;8.846;2023-04-15T04:22:16;20.30;;;14.27;;
50585;SDS011;36542;51.700;8.846;2023-04-15T04:24:41;22.13;;;15.43;;
50585;SDS011;36542;51.700;8.846;2023-04-15T04:27:07;25.37;;;15.07;;
50585;SDS011;36542;51.700;8.846;2023-04-15T04:29:33;22.43;;;15.40;;
50585;SDS011;36542;51.700;8.846;2023-04-15T04:31:58;28.53;;;16.87;;
50585;SDS011;36542;51.700;8.846;2023-04-15T04:34:24;27.87;;;17.67;;
50585;SDS011;36542;51.700;8.846;2023-04-15T04:36:50;32.67;;;18.50;;
50585;SDS011;36542;51.700;8.846;2023-04-15T04:39:15;31.93;;;19.83;;
50585;SDS011;36542;51.700;8.846;2023-04-15T04:41:41;34.30;;;22.27;;
50585;SDS011;36542;51.700;8.846;2023-04-15T04:44:06;39.43;;;23.27;;
50585;SDS011;36542;51.700;8.846;2023-04-15T04:46:31;40.30;;;24.87;;
50585;SDS011;36542;51.700;8.846;2023-04-15T04:48:57;30.27;;;19.60;;
50585;SDS011;36542;51.700;8.846;2023-04-15T04:51:22;41.27;;;23.40;;
50585;SDS011;36542;51.700;8.846;2023-04-15T04:53:48;38.57;;;22.80;;
50585;SDS011;36542;51.700;8.846;2023-04-15T04:56:14;39.57;;;23.57;;
50585;SDS011;36542;51.700;8.846;2023-04-15T04:58:39;38.80;;;24.17;;
50585;SDS011;36542;51.700;8.846;2023-04-15T05:01:04;40.40;;;24.67;;
50585;SDS011;36542;51.700;8.846;2023-04-15T05:03:30;34.47;;;23.63;;
50585;SDS011;36542;51.700;8.846;2023-04-15T05:05:56;38.47;;;23.40;;
50585;SDS011;36542;51.700;8.846;2023-04-15T05:08:21;39.57;;;23.87;;
50585;SDS011;36542;51.700;8.846;2023-04-15T05:10:47;43.33;;;25.13;;
50585;SDS011;36542;51.700;8.846;2023-04-15T05:13:12;47.23;;;28.20;;
50585;SDS011;36542;51.700;8.846;2023-04-15T05:15:38;53.80;;;29.33;;
50585;SDS011;36542;51.700;8.846;2023-04-15T05:18:05;59.17;;;32.00;;
50585;SDS011;36542;51.700;8.846;2023-04-15T05:20:30;56.57;;;33.67;;
50585;SDS011;36542;51.700;8.846;2023-04-15T05:22:56;60.90;;;36.53;;
50585;SDS011;36542;51.700;8.846;2023-04-15T05:25:21;68.77;;;39.07;;
50585;SDS011;36542;51.700;8.846;2023-04-15T05:27:47;71.60;;;40.50;;
50585;SDS011;36542;51.700;8.846;2023-04-15T05:30:12;72.00;;;37.90;;
50585;SDS011;36542;51.700;8.846;2023-04-15T05:32:38;67.23;;;37.97;;
50585;SDS011;36542;51.700;8.846;2023-04-15T05:35:04;55.83;;;32.50;;
50585;SDS011;36542;51.700;8.846;2023-04-15T05:37:30;49.17;;;32.17;;
50585;SDS011;36542;51.700;8.846;2023-04-15T05:39:55;58.43;;;33.70;;
50585;SDS011;36542;51.700;8.846;2023-04-15T05:42:21;50.77;;;31.83;;
50585;SDS011;36542;51.700;8.846;2023-04-15T05:44:46;53.27;;;32.17;;
50585;SDS011;36542;51.700;8.846;2023-04-15T05:47:12;56.80;;;32.73;;
50585;SDS011;36542;51.700;8.846;2023-04-15T05:49:38;51.93;;;31.47;;
50585;SDS011;36542;51.700;8.846;2023-04-15T05:52:03;53.63;;;32.90;;
50585;SDS011;36542;51.700;8.846;2023-04-15T05:54:29;53.90;;;32.30;;
50585;SDS011;36542;51.700;8.846;2023-04-15T05:56:55;49.13;;;31.77;;
50585;SDS011;36542;51.700;8.846;2023-04-15T05:59:21;49.63;;;28.73;;
50585;SDS011;36542;51.700;8.846;2023-04-15T06:01:47;46.63;;;29.77;;
50585;SDS011;36542;51.700;8.846;2023-04-15T06:04:13;45.37;;;28.53;;
50585;SDS011;36542;51.700;8.846;2023-04-15T06:06:39;39.00;;;26.03;;
50585;SDS011;36542;51.700;8.846;2023-04-15T06:09:04;41.30;;;25.27;;
50585;SDS011;36542;51.700;8.846;2023-04-15T06:11:30;36.37;;;24.30;;
50585;SDS011;36542;51.700;8.846;2023-04-15T06:13:56;30.17;;;21.83;;
50585;SDS011;36542;51.700;8.846;2023-04-15T06:16:21;37.83;;;24.90;;
50585;SDS011;36542;51.700;8.846;2023-04-15T06:18:47;44.40;;;26.60;;
50585;SDS011;36542;51.700;8.846;2023-04-15T06:21:13;41.97;;;26.87;;
50585;SDS011;36542;51.700;8.846;2023-04-15T06:23:39;41.03;;;27.00;;
50585;SDS011;36542;51.700;8.846;2023-04-15T06:26:05;42.23;;;27.70;;
50585;SDS011;36542;51.700;8.846;2023-04-15T06:28:31;42.13;;;26.57;;
50585;SDS011;36542;51.700;8.846;2023-04-15T06:30:56;39.93;;;25.10;;
50585;SDS011;36542;51.700;8.846;2023-04-15T06:33:22;42.83;;;26.07;;
50585;SDS011;36542;51.700;8.846;2023-04-15T06:35:47;44.30;;;26.77;;
50585;SDS011;36542;51.700;8.846;2023-04-15T06:38:13;36.57;;;23.70;;
50585;SDS011;36542;51.700;8.846;2023-04-15T06:40:39;37.10;;;25.30;;
50585;SDS011;36542;51.700;8.846;2023-04-15T06:43:05;39.67;;;26.50;;
50585;SDS011;36542;51.700;8.846;2023-04-15T06:45:30;41.67;;;26.60;;
50585;SDS011;36542;51.700;8.846;2023-04-15T06:47:56;41.10;;;25.47;;
50585;SDS011;36542;51.700;8.846;2023-04-15T06:50:21;37.20;;;22.87;;
50585;SDS011;36542;51.700;8.846;2023-04-15T06:52:47;39.53;;;24.37;;
50585;SDS011;36542;51.700;8.846;2023-04-15T06:55:12;42.57;;;24.90;;
50585;SDS011;36542;51.700;8.846;2023-04-15T06:57:38;38.10;;;24.63;;
50585;SDS011;36542;51.700;8.846;2023-04-15T07:00:04;42.63;;;25.80;;
50585;SDS011;36542;51.700;8.846;2023-04-15T07:02:31;40.77;;;23.80;;
50585;SDS011;36542;51.700;8.846;2023-04-15T07:04:57;42.63;;;24.87;;
50585;SDS011;36542;51.700;8.846;2023-04-15T07:07:22;44.67;;;26.47;;
50585;SDS011;36542;51.700;8.846;2023-04-15T07:09:48;38.37;;;24.73;;
50585;SDS011;36542;51.700;8.846;2023-04-15T07:12:13;42.30;;;25.70;;
50585;SDS011;36542;51.700;8.846;2023-04-15T07:14:39;41.07;;;25.03;;
50585;SDS011;36542;51.700;8.846;2023-04-15T07:17:04;38.60;;;24.47;;
50585;SDS011;36542;51.700;8.846;2023-04-15T07:19:30;39.47;;;25.67;;
50585;SDS011;36542;51.700;8.846;2023-04-15T07:21:56;37.13;;;23.87;;
50585;SDS011;36542;51.700;8.846;2023-04-15T07:24:21;40.77;;;24.80;;
50585;SDS011;36542;51.700;8.846;2023-04-15T07:26:50;40.20;;;25.10;;
50585;SDS011;36542;51.700;8.846;2023-04-15T07:29:17;40.77;;;24.70;;
50585;SDS011;36542;51.700;8.846;2023-04-15T07:31:42;42.60;;;25.47;;
50585;SDS011;36542;51.700;8.846;2023-04-15T07:34:08;38.63;;;24.33;;
50585;SDS011;36542;51.700;8.846;2023-04-15T07:36:34;40.30;;;25.57;;
50585;SDS011;36542;51.700;8.846;2023-04-15T07:38:59;40.77;;;25.17;;
50585;SDS011;36542;51.700;8.846;2023-04-15T07:41:27;39.43;;;25.57;;
50585;SDS011;36542;51.700;8.846;2023-04-15T07:43:53;45.17;;;25.57;;
50585;SDS011;36542;51.700;8.846;2023-04-15T07:46:18;45.47;;;25.87;;
50585;SDS011;36542;51.700;8.846;2023-04-15T07:48:44;38.43;;;26.03;;
50585;SDS011;36542;51.700;8.846;2023-04-15T07:51:09;46.10;;;27.27;;
50585;SDS011;36542;51.700;8.846;2023-04-15T07:53:35;42.70;;;27.73;;
50585;SDS011;36542;51.700;8.846;2023-04-15T07:56:01;40.60;;;25.33;;
50585;SDS011;36542;51.700;8.846;2023-04-15T07:58:26;47.33;;;29.07;;
50585;SDS011;36542;51.700;8.846;2023-04-15T08:00:52;49.70;;;30.50;;
50585;SDS011;36542;51.700;8.846;2023-04-15T08:03:19;47.53;;;26.93;;
50585;SDS011;36542;51.700;8.846;2023-04-15T08:05:46;45.87;;;27.13;;
50585;SDS011;36542;51.700;8.846;2023-04-15T08:08:12;48.27;;;28.83;;
50585;SDS011;36542;51.700;8.846;2023-04-15T08:10:37;54.20;;;31.77;;
50585;SDS011;36542;51.700;8.846;2023-04-15T08:13:03;51.90;;;31.33;;
50585;SDS011;36542;51.700;8.846;2023-04-15T08:15:28;50.77;;;30.73;;
50585;SDS011;36542;51.700;8.846;2023-04-15T08:17:54;55.50;;;31.97;;
50585;SDS011;36542;51.700;8.846;2023-04-15T08:20:19;41.73;;;25.10;;
50585;SDS011;36542;51.700;8.846;2023-04-15T08:22:44;44.27;;;28.57;;
50585;SDS011;36542;51.700;8.846;2023-04-15T08:25:11;44.93;;;27.73;;
50585;SDS011;36542;51.700;8.846;2023-04-15T08:27:37;45.47;;;24.33;;
50585;SDS011;36542;51.700;8.846;2023-04-15T08:30:02;39.83;;;23.30;;
50585;SDS011;36542;51.700;8.846;2023-04-15T08:32:29;44.83;;;22.70;;
50585;SDS011;36542;51.700;8.846;2023-04-15T08:34:55;44.73;;;24.43;;
50585;SDS011;36542;51.700;8.846;2023-04-15T08:37:21;44.30;;;23.67;;
50585;SDS011;36542;51.700;8.846;2023-04-15T08:39:46;40.33;;;23.33;;
50585;SDS011;36542;51.700;8.846;2023-04-15T08:42:15;47.00;;;23.93;;
50585;SDS011;36542;51.700;8.846;2023-04-15T08:44:43;40.83;;;22.37;;
50585;SDS011;36542;51.700;8.846;2023-04-15T08:47:11;42.43;;;23.73;;
50585;SDS011;36542;51.700;8.846;2023-04-15T08:49:39;46.40;;;23.50;;
50585;SDS011;36542;51.700;8.846;2023-04-15T08:52:05;45.33;;;24.33;;
50585;SDS011;36542;51.700;8.846;2023-04-15T08:54:31;42.47;;;23.00;;
50585;SDS011;36542;51.700;8.846;2023-04-15T08:56:58;37.40;;;19.33;;
50585;SDS011;36542;51.700;8.846;2023-04-15T08:59:23;39.00;;;21.53;;
50585;SDS011;36542;51.700;8.846;2023-04-15T09:01:49;38.17;;;20.80;;
50585;SDS011;36542;51.700;8.846;2023-04-15T09:04:16;34.53;;;19.17;;
50585;SDS011;36542;51.700;8.846;2023-04-15T09:06:42;47.40;;;23.90;;
50585;SDS011;36542;51.700;8.846;2023-04-15T09:09:07;47.63;;;24.17;;
50585;SDS011;36542;51.700;8.846;2023-04-15T09:11:33;42.23;;;22.23;;
50585;SDS011;36542;51.700;8.846;2023-04-15T09:13:59;40.13;;;20.60;;
50585;SDS011;36542;51.700;8.846;2023-04-15T09:16:25;39.47;;;20.43;;
50585;SDS011;36542;51.700;8.846;2023-04-15T09:18:51;40.57;;;17.27;;
50585;SDS011;36542;51.700;8.846;2023-04-15T09:21:17;28.27;;;14.90;;
50585;SDS011;36542;51.700;8.846;2023-04-15T09:23:57;31.17;;;15.73;;
50585;SDS011;36542;51.700;8.846;2023-04-15T09:26:42;33.20;;;16.10;;
50585;SDS011;36542;51.700;8.846;2023-04-15T09:29:08;34.63;;;16.30;;
50585;SDS011;36542;51.700;8.846;2023-04-15T09:31:37;31.70;;;15.30;;
50585;SDS011;36542;51.700;8.846;2023-04-15T09:34:04;23.67;;;12.73;;
50585;SDS011;36542;51.700;8.846;2023-04-15T09:39:11;34.33;;;15.93;;
50585;SDS011;36542;51.700;8.846;2023-04-15T09:41:37;33.17;;;16.23;;
50585;SDS011;36542;51.700;8.846;2023-04-15T09:44:03;35.70;;;15.27;;
50585;SDS011;36542;51.700;8.846;2023-04-15T09:46:41;34.67;;;16.27;;
50585;SDS011;36542;51.700;8.846;2023-04-15T09:49:08;32.63;;;15.50;;
50585;SDS011;36542;51.700;8.846;2023-04-15T09:51:34;35.20;;;16.17;;
50585;SDS011;36542;51.700;8.846;2023-04-15T09:54:00;32.50;;;15.60;;
50585;SDS011;36542;51.700;8.846;2023-04-15T09:56:31;32.83;;;15.20;;
50585;SDS011;36542;51.700;8.846;2023-04-15T09:59:09;29.63;;;15.33;;
50585;SDS011;36542;51.700;8.846;2023-04-15T10:01:34;34.47;;;16.07;;
50585;SDS011;36542;51.700;8.846;2023-04-15T10:04:02;31.77;;;15.60;;
50585;SDS011;36542;51.700;8.846;2023-04-15T10:06:28;36.80;;;15.23;;
50585;SDS011;36542;51.700;8.846;2023-04-15T10:08:54;32.77;;;16.37;;
50585;SDS011;36542;51.700;8.846;2023-04-15T10:11:21;37.00;;;17.10;;
50585;SDS011;36542;51.700;8.846;2023-04-15T10:13:48;34.27;;;16.53;;
50585;SDS011;36542;51.700;8.846;2023-04-15T10:16:15;34.67;;;15.70;;
50585;SDS011;36542;51.700;8.846;2023-04-15T10:18:47;35.17;;;15.67;;
50585;SDS011;36542;51.700;8.846;2023-04-15T10:21:22;32.00;;;15.90;;
50585;SDS011;36542;51.700;8.846;2023-04-15T10:23:49;34.77;;;15.27;;
50585;SDS011;36542;51.700;8.846;2023-04-15T10:26:15;33.30;;;16.50;;
50585;SDS011;36542;51.700;8.846;2023-04-15T10:28:41;33.03;;;15.80;;
50585;SDS011;36542;51.700;8.846;2023-04-15T10:31:08;30.07;;;14.80;;
50585;SDS011;36542;51.700;8.846;2023-04-15T10:33:37;32.57;;;15.80;;
50585;SDS011;36542;51.700;8.846;2023-04-15T10:36:04;30.00;;;15.20;;
50585;SDS011;36542;51.700;8.846;2023-04-15T10:38:35;33.23;;;16.00;;
50585;SDS011;36542;51.700;8.846;2023-04-15T10:46:15;35.07;;;16.90;;
50585;SDS011;36542;51.700;8.846;2023-04-15T10:48:46;35.77;;;15.80;;
50585;SDS011;36542;51.700;8.846;2023-04-15T10:51:14;39.67;;;17.97;;
50585;SDS011;36542;51.700;8.846;2023-04-15T10:53:40;38.80;;;19.30;;
50585;SDS011;36542;51.700;8.846;2023-04-15T10:56:06;36.43;;;18.00;;
50585;SDS011;36542;51.700;8.846;2023-04-15T10:58:42;37.53;;;18.07;;
50585;SDS011;36542;51.700;8.846;2023-04-15T11:01:08;37.73;;;17.80;;
50585;SDS011;36542;51.700;8.846;2023-04-15T11:03:37;39.03;;;18.97;;
50585;SDS011;36542;51.700;8.846;2023-04-15T11:06:04;35.17;;;18.23;;
50585;SDS011;36542;51.700;8.846;2023-04-15T11:08:51;46.60;;;20.87;;
50585;SDS011;36542;51.700;8.846;2023-04-15T11:12:08;42.17;;;19.23;;
50585;SDS011;36542;51.700;8.846;2023-04-15T11:14:28;38.17;;;18.43;;
50585;SDS011;36542;51.700;8.846;2023-04-15T11:16:54;43.37;;;19.17;;
50585;SDS011;36542;51.700;8.846;2023-04-15T11:19:19;44.60;;;19.63;;
50585;SDS011;36542;51.700;8.846;2023-04-15T11:21:45;46.47;;;20.30;;
50585;SDS011;36542;51.700;8.846;2023-04-15T11:24:10;39.27;;;18.63;;
50585;SDS011;36542;51.700;8.846;2023-04-15T11:26:36;42.40;;;18.90;;
50585;SDS011;36542;51.700;8.846;2023-04-15T11:29:02;37.80;;;17.90;;
50585;SDS011;36542;51.700;8.846;2023-04-15T11:31:27;32.90;;;16.77;;
50585;SDS011;36542;51.700;8.846;2023-04-15T11:33:56;41.00;;;18.23;;
50585;SDS011;36542;51.700;8.846;2023-04-15T11:36:24;32.97;;;17.33;;
50585;SDS011;36542;51.700;8.846;2023-04-15T11:38:51;35.33;;;17.73;;
50585;SDS011;36542;51.700;8.846;2023-04-15T11:41:19;36.67;;;17.87;;
50585;SDS011;36542;51.700;8.846;2023-04-15T11:43:48;31.67;;;16.00;;
50585;SDS011;36542;51.700;8.846;2023-04-15T11:46:14;33.07;;;16.50;;
50585;SDS011;36542;51.700;8.846;2023-04-15T11:48:43;36.00;;;16.93;;
50585;SDS011;36542;51.700;8.846;2023-04-15T11:51:10;36.03;;;15.97;;
50585;SDS011;36542;51.700;8.846;2023-04-15T11:56:21;40.73;;;19.37;;
50585;SDS011;36542;51.700;8.846;2023-04-15T11:58:49;38.27;;;17.40;;
50585;SDS011;36542;51.700;8.846;2023-04-15T12:01:17;39.47;;;17.37;;
50585;SDS011;36542;51.700;8.846;2023-04-15T12:03:46;36.03;;;16.60;;
50585;SDS011;36542;51.700;8.846;2023-04-15T12:13:55;38.77;;;16.60;;
50585;SDS011;36542;51.700;8.846;2023-04-15T12:16:48;42.80;;;18.37;;
50585;SDS011;36542;51.700;8.846;2023-04-15T12:19:37;33.13;;;16.30;;
50585;SDS011;36542;51.700;8.846;2023-04-15T12:22:05;26.73;;;13.80;;
50585;SDS011;36542;51.700;8.846;2023-04-15T12:24:36;39.90;;;18.20;;
50585;SDS011;36542;51.700;8.846;2023-04-15T12:27:02;42.97;;;18.60;;
50585;SDS011;36542;51.700;8.846;2023-04-15T12:29:30;34.97;;;18.00;;
50585;SDS011;36542;51.700;8.846;2023-04-15T12:32:04;35.73;;;17.50;;
50585;SDS011;36542;51.700;8.846;2023-04-15T12:34:32;37.73;;;18.47;;
50585;SDS011;36542;51.700;8.846;2023-04-15T12:37:00;44.07;;;18.00;;
50585;SDS011;36542;51.700;8.846;2023-04-15T12:39:28;32.03;;;16.47;;
50585;SDS011;36542;51.700;8.846;2023-04-15T12:41:56;41.33;;;17.97;;
50585;SDS011;36542;51.700;8.846;2023-04-15T12:44:24;46.20;;;19.67;;
50585;SDS011;36542;51.700;8.846;2023-04-15T12:46:49;37.53;;;18.37;;
50585;SDS011;36542;51.700;8.846;2023-04-15T12:49:16;41.63;;;18.93;;
50585;SDS011;36542;51.700;8.846;2023-04-15T12:51:44;41.90;;;19.37;;
50585;SDS011;36542;51.700;8.846;2023-04-15T12:54:11;48.40;;;20.10;;
50585;SDS011;36542;51.700;8.846;2023-04-15T12:56:36;33.33;;;16.83;;
50585;SDS011;36542;51.700;8.846;2023-04-15T12:59:02;44.07;;;19.80;;
50585;SDS011;36542;51.700;8.846;2023-04-15T13:01:27;38.87;;;18.87;;
50585;SDS011;36542;51.700;8.846;2023-04-15T13:03:53;33.37;;;18.17;;
50585;SDS011;36542;51.700;8.846;2023-04-15T13:06:19;34.73;;;19.57;;
50585;SDS011;36542;51.700;8.846;2023-04-15T13:08:45;30.63;;;17.50;;
50585;SDS011;36542;51.700;8.846;2023-04-15T13:11:11;33.70;;;18.23;;
50585;SDS011;36542;51.700;8.846;2023-04-15T13:13:36;42.83;;;20.43;;
50585;SDS011;36542;51.700;8.846;2023-04-15T13:16:02;33.87;;;18.03;;
50585;SDS011;36542;51.700;8.846;2023-04-15T13:18:27;37.17;;;17.63;;
50585;SDS011;36542;51.700;8.846;2023-04-15T13:20:55;35.30;;;18.33;;
50585;SDS011;36542;51.700;8.846;2023-04-15T13:23:20;32.90;;;18.43;;
50585;SDS011;36542;51.700;8.846;2023-04-15T13:25:46;33.70;;;19.03;;
50585;SDS011;36542;51.700;8.846;2023-04-15T13:28:11;37.07;;;19.03;;
50585;SDS011;36542;51.700;8.846;2023-04-15T13:30:37;33.93;;;18.73;;
50585;SDS011;36542;51.700;8.846;2023-04-15T13:33:03;38.70;;;20.13;;
50585;SDS011;36542;51.700;8.846;2023-04-15T13:35:30;39.30;;;20.93;;
50585;SDS011;36542;51.700;8.846;2023-04-15T13:37:56;32.27;;;16.50;;
50585;SDS011;36542;51.700;8.846;2023-04-15T13:40:22;39.40;;;20.13;;
50585;SDS011;36542;51.700;8.846;2023-04-15T13:42:47;39.23;;;18.43;;
50585;SDS011;36542;51.700;8.846;2023-04-15T13:45:13;30.10;;;18.57;;
50585;SDS011;36542;51.700;8.846;2023-04-15T13:47:39;36.00;;;18.97;;
50585;SDS011;36542;51.700;8.846;2023-04-15T13:50:05;37.93;;;19.30;;
50585;SDS011;36542;51.700;8.846;2023-04-15T13:52:30;38.67;;;20.37;;
50585;SDS011;36542;51.700;8.846;2023-04-15T13:54:56;39.33;;;20.03;;
50585;SDS011;36542;51.700;8.846;2023-04-15T13:57:21;43.70;;;19.83;;
50585;SDS011;36542;51.700;8.846;2023-04-15T13:59:47;37.20;;;19.63;;
50585;SDS011;36542;51.700;8.846;2023-04-15T14:02:12;45.00;;;21.00;;
50585;SDS011;36542;51.700;8.846;2023-04-15T14:04:38;37.27;;;18.30;;
50585;SDS011;36542;51.700;8.846;2023-04-15T14:07:04;36.13;;;19.23;;
50585;SDS011;36542;51.700;8.846;2023-04-15T14:09:29;39.10;;;19.17;;
50585;SDS011;36542;51.700;8.846;2023-04-15T14:11:55;47.57;;;21.63;;
50585;SDS011;36542;51.700;8.846;2023-04-15T14:14:20;53.43;;;22.40;;
50585;SDS011;36542;51.700;8.846;2023-04-15T14:16:46;37.77;;;19.77;;
50585;SDS011;36542;51.700;8.846;2023-04-15T14:19:12;42.20;;;21.07;;
50585;SDS011;36542;51.700;8.846;2023-04-15T14:21:38;58.43;;;21.63;;
50585;SDS011;36542;51.700;8.846;2023-04-15T14:24:03;39.20;;;19.37;;
50585;SDS011;36542;51.700;8.846;2023-04-15T14:26:29;40.43;;;19.97;;
50585;SDS011;36542;51.700;8.846;2023-04-15T14:28:55;65.30;;;23.10;;
50585;SDS011;36542;51.700;8.846;2023-04-15T14:31:20;46.73;;;22.13;;
50585;SDS011;36542;51.700;8.846;2023-04-15T14:33:46;76.10;;;24.53;;
50585;SDS011;36542;51.700;8.846;2023-04-15T14:36:11;44.43;;;20.73;;
50585;SDS011;36542;51.700;8.846;2023-04-15T14:38:37;210.97;;;37.40;;
50585;SDS011;36542;51.700;8.846;2023-04-15T14:41:04;41.80;;;19.80;;